createdAt,value
2023-03-06T00:00:36.007Z,20.90
2023-03-06T00:03:03.201Z,19.37
2023-03-06T00:05:30.668Z,25.63
2023-03-06T00:07:57.557Z,18.97
2023-03-06T00:10:27.300Z,19.60
2023-03-06T00:12:59.420Z,19.07
2023-03-06T00:15:27.405Z,18.53
2023-03-06T00:17:55.449Z,20.47
2023-03-06T00:20:24.127Z,17.33
2023-03-06T00:22:51.525Z,17.07
2023-03-06T00:25:21.415Z,18.47
2023-03-06T00:27:49.374Z,19.53
2023-03-06T00:30:22.276Z,15.00
2023-03-06T00:32:52.611Z,15.97
2023-03-06T00:35:19.852Z,15.07
2023-03-06T00:37:46.951Z,16.40
2023-03-06T00:40:16.079Z,15.20
2023-03-06T00:42:43.062Z,15.90
2023-03-06T00:45:10.755Z,16.27
2023-03-06T00:47:38.051Z,17.97
2023-03-06T00:50:06.041Z,17.20
2023-03-06T00:52:33.476Z,15.10
2023-03-06T00:55:00.606Z,16.50
2023-03-06T00:57:27.529Z,19.80
2023-03-06T00:59:54.432Z,17.30
2023-03-06T01:02:22.318Z,16.20
2023-03-06T01:04:49.427Z,21.43
2023-03-06T01:07:16.770Z,20.73
2023-03-06T01:09:43.553Z,21.33
2023-03-06T01:12:10.569Z,23.67
2023-03-06T01:14:37.442Z,23.43
2023-03-06T01:17:05.032Z,25.80
2023-03-06T01:19:31.969Z,24.53
2023-03-06T01:21:58.921Z,23.97
2023-03-06T01:24:26.118Z,24.07
2023-03-06T01:26:53.096Z,23.70
2023-03-06T01:29:21.097Z,24.93
2023-03-06T01:31:48.208Z,25.57
2023-03-06T01:34:15.038Z,22.77
2023-03-06T01:36:42.142Z,22.40
2023-03-06T01:39:09.165Z,20.60
2023-03-06T01:41:36.885Z,22.73
2023-03-06T01:44:03.992Z,21.70
2023-03-06T01:46:35.525Z,23.57
2023-03-06T01:49:26.522Z,23.73
2023-03-06T01:52:02.830Z,23.80
2023-03-06T01:54:38.161Z,26.57
2023-03-06T01:57:33.948Z,26.97
2023-03-06T02:00:17.459Z,32.67
2023-03-06T02:02:54.078Z,29.47
2023-03-06T02:05:22.113Z,14.73
2023-03-06T02:07:50.954Z,8.03
2023-03-06T02:10:19.524Z,6.33
2023-03-06T02:12:47.662Z,6.07
2023-03-06T02:15:17.386Z,6.77
2023-03-06T02:17:46.785Z,8.83
2023-03-06T02:20:26.987Z,7.30
2023-03-06T02:23:28.063Z,4.90
2023-03-06T02:25:55.377Z,6.30
2023-03-06T02:28:23.724Z,6.30
2023-03-06T02:30:54.391Z,5.87
2023-03-06T02:33:25.699Z,7.80
2023-03-06T02:36:06.818Z,8.47
2023-03-06T02:39:03.767Z,5.97
2023-03-06T02:41:30.694Z,8.30
2023-03-06T02:43:57.661Z,7.10
2023-03-06T02:46:24.589Z,11.00
2023-03-06T02:48:51.563Z,8.40
2023-03-06T02:51:19.180Z,6.83
2023-03-06T02:53:46.161Z,8.67
2023-03-06T02:56:13.291Z,6.60
2023-03-06T02:58:40.268Z,5.43
2023-03-06T03:01:08.084Z,5.77
2023-03-06T03:03:35.052Z,4.90
2023-03-06T03:06:05.193Z,4.90
2023-03-06T03:08:32.951Z,4.27
2023-03-06T03:11:00.504Z,5.90
2023-03-06T03:13:27.792Z,8.33
2023-03-06T03:16:09.124Z,5.87
2023-03-06T03:18:37.282Z,6.53
2023-03-06T03:21:11.716Z,5.17
2023-03-06T03:23:38.934Z,3.97
2023-03-06T03:26:08.603Z,6.90
2023-03-06T03:28:35.412Z,4.43
2023-03-06T03:31:08.252Z,5.00
2023-03-06T03:33:36.107Z,5.27
2023-03-06T03:36:05.606Z,7.63
2023-03-06T03:38:33.573Z,9.73
2023-03-06T03:41:04.105Z,5.53
2023-03-06T03:43:32.176Z,5.60
2023-03-06T03:45:59.328Z,10.40
2023-03-06T03:48:26.422Z,6.60
2023-03-06T03:50:53.345Z,6.87
2023-03-06T03:53:20.452Z,9.27
2023-03-06T03:55:48.543Z,6.37
2023-03-06T03:58:15.965Z,9.70
2023-03-06T04:00:42.869Z,9.60
2023-03-06T04:03:09.718Z,10.67
2023-03-06T04:05:37.031Z,8.70
2023-03-06T04:08:04.448Z,14.33
2023-03-06T04:10:32.119Z,12.30
2023-03-06T04:13:03.675Z,10.77
2023-03-06T04:15:30.569Z,11.60
2023-03-06T04:17:57.513Z,12.70
2023-03-06T04:20:24.937Z,13.87
2023-03-06T04:22:51.773Z,16.27
2023-03-06T04:25:18.883Z,20.67
2023-03-06T04:27:46.152Z,21.40
2023-03-06T04:30:13.323Z,17.67
2023-03-06T04:32:40.308Z,19.30
2023-03-06T04:35:07.659Z,22.00
2023-03-06T04:37:34.802Z,18.43
2023-03-06T04:40:01.789Z,16.60
2023-03-06T04:42:29.111Z,17.40
2023-03-06T04:44:56.171Z,22.47
2023-03-06T04:47:23.098Z,20.63
2023-03-06T04:49:50.327Z,27.23
2023-03-06T04:52:17.279Z,24.50
2023-03-06T04:54:44.171Z,26.43
2023-03-06T04:57:11.371Z,25.00
2023-03-06T04:59:39.299Z,35.70
2023-03-06T05:02:06.394Z,44.17
2023-03-06T05:04:33.344Z,38.53
2023-03-06T05:07:00.158Z,46.47
2023-03-06T05:09:27.083Z,38.17
2023-03-06T05:11:54.054Z,43.43
2023-03-06T05:14:21.136Z,41.90
2023-03-06T05:16:48.050Z,35.27
2023-03-06T05:19:15.532Z,47.83
2023-03-06T05:21:42.500Z,45.10
2023-03-06T05:24:09.964Z,52.00
2023-03-06T05:26:37.149Z,53.53
2023-03-06T05:29:06.179Z,46.23
2023-03-06T05:31:33.546Z,42.73
2023-03-06T05:34:00.912Z,46.03
2023-03-06T05:36:28.946Z,47.60
2023-03-06T05:38:56.289Z,49.00
2023-03-06T05:41:26.098Z,43.07
2023-03-06T05:43:54.476Z,45.53
2023-03-06T05:46:21.645Z,51.77
2023-03-06T05:48:48.469Z,48.63
2023-03-06T05:51:15.618Z,72.03
2023-03-06T05:53:44.941Z,51.70
2023-03-06T05:56:11.979Z,38.70
2023-03-06T05:58:39.327Z,41.07
2023-03-06T06:01:11.498Z,57.43
2023-03-06T06:03:41.586Z,39.33
2023-03-06T06:06:10.279Z,40.97
2023-03-06T06:08:37.172Z,39.87
2023-03-06T06:11:08.580Z,49.17
2023-03-06T06:13:36.403Z,32.90
2023-03-06T06:16:19.127Z,37.90
2023-03-06T06:18:46.245Z,36.27
2023-03-06T06:21:17.817Z,41.50
2023-03-06T06:23:44.946Z,39.27
2023-03-06T06:26:14.424Z,37.60
2023-03-06T06:28:41.389Z,48.97
2023-03-06T06:31:13.152Z,38.10
2023-03-06T06:33:41.128Z,45.90
2023-03-06T06:36:21.420Z,49.70
2023-03-06T06:38:49.712Z,45.33
2023-03-06T06:44:08.924Z,45.67
2023-03-06T06:49:23.589Z,48.43
2023-03-06T06:51:50.690Z,40.73
2023-03-06T06:54:18.981Z,51.60
2023-03-06T06:56:48.709Z,43.10
2023-03-06T06:59:17.391Z,38.27
2023-03-06T07:01:46.182Z,40.60
2023-03-06T07:04:15.542Z,41.63
2023-03-06T07:06:43.102Z,32.10
2023-03-06T07:09:10.247Z,34.97
2023-03-06T07:11:38.664Z,32.00
2023-03-06T07:14:06.121Z,42.23
2023-03-06T07:16:33.173Z,29.73
2023-03-06T07:19:00.142Z,34.77
2023-03-06T07:21:27.082Z,29.77
2023-03-06T07:23:54.657Z,30.60
2023-03-06T07:26:23.584Z,28.63
2023-03-06T07:28:53.828Z,33.53
2023-03-06T07:31:27.113Z,28.03
2023-03-06T07:33:55.012Z,25.97
2023-03-06T07:36:24.026Z,26.07
2023-03-06T07:38:50.860Z,26.83
2023-03-06T07:41:22.169Z,25.03
2023-03-06T07:43:50.423Z,27.17
2023-03-06T07:46:17.566Z,24.47
2023-03-06T07:48:44.893Z,24.83
2023-03-06T07:51:20.964Z,23.20
2023-03-06T07:53:49.318Z,23.07
2023-03-06T07:56:16.302Z,21.70
2023-03-06T07:58:47.017Z,24.37
2023-03-06T08:01:17.206Z,18.27
2023-03-06T08:03:44.488Z,17.70
2023-03-06T08:06:14.392Z,16.97
2023-03-06T08:08:43.757Z,13.93
2023-03-06T08:11:12.469Z,14.63
2023-03-06T08:13:42.888Z,14.60
2023-03-06T08:16:10.438Z,15.97
2023-03-06T08:18:40.061Z,14.60
2023-03-06T08:21:16.153Z,13.27
2023-03-06T08:23:44.223Z,16.50
2023-03-06T08:26:16.488Z,12.63
2023-03-06T08:28:43.634Z,12.93
2023-03-06T08:31:24.721Z,15.90
2023-03-06T08:33:51.904Z,13.60
2023-03-06T08:36:19.493Z,12.47
2023-03-06T08:38:46.771Z,14.23
2023-03-06T08:41:16.485Z,13.53
2023-03-06T08:43:43.848Z,18.27
2023-03-06T08:46:12.457Z,15.27
2023-03-06T08:48:39.369Z,12.73
2023-03-06T08:51:08.247Z,13.83
2023-03-06T08:53:43.165Z,11.17
2023-03-06T08:56:16.685Z,11.27
2023-03-06T08:58:43.640Z,10.60
2023-03-06T09:01:15.824Z,12.23
2023-03-06T09:03:44.291Z,11.90
2023-03-06T09:06:11.679Z,10.17
2023-03-06T09:08:38.774Z,9.63
2023-03-06T09:11:05.937Z,11.57
2023-03-06T09:13:33.063Z,9.30
2023-03-06T09:16:00.154Z,8.93
2023-03-06T09:18:26.866Z,7.87
2023-03-06T09:20:56.960Z,9.33
2023-03-06T09:23:25.023Z,8.60
2023-03-06T09:25:56.686Z,8.77
2023-03-06T09:28:24.686Z,8.27
2023-03-06T09:30:52.503Z,7.70
2023-03-06T09:33:20.045Z,7.67
2023-03-06T09:36:00.324Z,6.57
2023-03-06T09:38:29.313Z,6.53
2023-03-06T09:41:01.959Z,6.07
2023-03-06T09:43:35.767Z,5.33
2023-03-06T09:46:40.067Z,4.63
2023-03-06T09:49:44.893Z,4.37
2023-03-06T09:52:31.614Z,4.37
2023-03-06T09:55:09.835Z,4.30
2023-03-06T09:57:56.663Z,3.50
2023-03-06T10:00:53.018Z,4.03
2023-03-06T10:03:39.763Z,4.60
2023-03-06T10:06:18.838Z,4.53
2023-03-06T10:09:02.910Z,4.77
2023-03-06T10:11:44.078Z,4.70
2023-03-06T10:14:20.855Z,3.20
2023-03-06T10:16:51.003Z,5.03
2023-03-06T10:19:20.849Z,9.33
2023-03-06T10:22:04.708Z,9.30
2023-03-06T10:24:55.042Z,3.57
2023-03-06T10:27:34.189Z,3.73
2023-03-06T10:30:39.982Z,4.83
2023-03-06T10:33:09.819Z,2.80
2023-03-06T10:35:56.489Z,3.40
2023-03-06T10:38:28.041Z,4.37
2023-03-06T10:41:12.953Z,2.70
2023-03-06T10:43:42.600Z,3.23
2023-03-06T10:46:12.305Z,3.57
2023-03-06T10:48:42.843Z,2.70
2023-03-06T10:51:18.923Z,3.37
2023-03-06T10:53:56.048Z,2.73
2023-03-06T10:56:32.850Z,4.73
2023-03-06T10:59:06.899Z,4.93
2023-03-06T11:01:34.787Z,3.60
2023-03-06T11:04:31.760Z,5.33
2023-03-06T11:07:08.138Z,4.20
2023-03-06T11:09:36.039Z,3.30
2023-03-06T11:12:36.813Z,4.43
2023-03-06T11:15:23.541Z,3.90
2023-03-06T11:18:00.518Z,3.90
2023-03-06T11:20:55.690Z,7.20
2023-03-06T11:23:39.372Z,3.40
2023-03-06T11:26:22.102Z,3.57
2023-03-06T11:29:03.099Z,4.53
2023-03-06T11:31:34.111Z,3.20
2023-03-06T11:34:23.399Z,3.50
2023-03-06T11:36:58.945Z,2.70
2023-03-06T11:39:36.439Z,5.60
2023-03-06T11:42:12.627Z,4.57
2023-03-06T11:45:02.860Z,5.17
2023-03-06T11:47:37.178Z,3.63
2023-03-06T11:50:19.268Z,3.87
2023-03-06T11:52:54.909Z,3.30
2023-03-06T11:56:07.787Z,3.93
2023-03-06T11:59:16.371Z,3.00
2023-03-06T12:02:20.633Z,4.17
2023-03-06T12:05:05.975Z,3.83
2023-03-06T12:07:50.965Z,4.60
2023-03-06T12:10:24.902Z,4.97
2023-03-06T12:13:03.480Z,2.57
2023-03-06T12:16:06.467Z,3.33
2023-03-06T12:19:18.232Z,6.43
2023-03-06T12:21:54.693Z,1.73
2023-03-06T12:24:49.989Z,4.37
2023-03-06T12:27:31.994Z,1.67
2023-03-06T12:30:04.892Z,3.80
2023-03-06T12:32:54.177Z,3.40
2023-03-06T12:35:21.500Z,5.30
2023-03-06T12:38:25.878Z,3.20
2023-03-06T12:41:31.251Z,3.40
2023-03-06T12:44:21.258Z,4.43
2023-03-06T12:46:55.293Z,3.87
2023-03-06T12:49:33.060Z,5.77
2023-03-06T12:52:04.384Z,4.03
2023-03-06T12:54:35.605Z,5.63
2023-03-06T12:57:03.090Z,3.00
2023-03-06T12:59:50.179Z,0.87
2023-03-06T13:02:17.673Z,11.20
2023-03-06T13:04:55.699Z,3.50
2023-03-06T13:07:36.969Z,6.50
2023-03-06T13:10:21.753Z,5.07
2023-03-06T13:12:58.529Z,4.60
2023-03-06T13:16:04.206Z,1.53
2023-03-06T13:18:34.221Z,3.43
2023-03-06T13:21:02.141Z,2.30
2023-03-06T13:23:39.160Z,3.20
2023-03-06T13:26:32.891Z,3.53
2023-03-06T13:28:59.878Z,4.13
2023-03-06T13:31:52.189Z,2.67
2023-03-06T13:34:43.631Z,2.30
2023-03-06T13:37:23.636Z,1.90
2023-03-06T13:39:57.079Z,4.97
2023-03-06T13:42:38.282Z,2.40
2023-03-06T13:45:16.469Z,2.77
2023-03-06T13:50:46.457Z,1.93
2023-03-06T13:53:25.421Z,3.07
2023-03-06T13:56:08.637Z,4.67
2023-03-06T13:58:58.829Z,2.50
2023-03-06T14:02:02.024Z,2.47
2023-03-06T14:04:44.963Z,2.43
2023-03-06T14:07:31.861Z,4.10
2023-03-06T14:10:14.196Z,5.47
2023-03-06T14:12:51.376Z,4.73
2023-03-06T14:15:22.921Z,2.80
2023-03-06T14:18:24.298Z,1.47
2023-03-06T14:21:01.134Z,2.93
2023-03-06T14:23:30.719Z,3.07
2023-03-06T14:26:07.919Z,2.13
2023-03-06T14:28:39.441Z,1.03
2023-03-06T14:31:07.356Z,3.00
2023-03-06T14:33:59.745Z,4.97
2023-03-06T14:36:35.842Z,1.43
2023-03-06T14:39:15.005Z,2.13
2023-03-06T14:41:42.006Z,2.57
2023-03-06T14:44:16.905Z,4.63
2023-03-06T14:46:55.383Z,4.30
2023-03-06T14:49:25.212Z,2.97
2023-03-06T14:51:55.970Z,2.17
2023-03-06T14:54:28.801Z,2.10
2023-03-06T14:57:06.379Z,4.43
2023-03-06T14:59:45.667Z,6.30
2023-03-06T15:02:19.656Z,6.97
2023-03-06T15:04:51.658Z,2.27
2023-03-06T15:07:24.418Z,3.23
2023-03-06T15:09:56.483Z,2.13
2023-03-06T15:12:34.562Z,2.93
2023-03-06T15:15:10.701Z,6.50
2023-03-06T15:17:42.370Z,3.40
2023-03-06T15:20:42.226Z,2.23
2023-03-06T15:23:22.632Z,3.03
2023-03-06T15:25:58.713Z,2.77
2023-03-06T15:28:33.586Z,4.43
2023-03-06T15:31:21.302Z,2.40
2023-03-06T15:34:24.022Z,2.73
2023-03-06T15:36:56.864Z,3.07
2023-03-06T15:39:34.714Z,3.27
2023-03-06T15:42:18.845Z,4.03
2023-03-06T15:45:19.352Z,1.80
2023-03-06T15:47:48.396Z,3.00
2023-03-06T15:50:17.095Z,4.50
2023-03-06T15:52:46.394Z,3.57
2023-03-06T15:55:15.499Z,2.53
2023-03-06T15:57:51.153Z,1.30
2023-03-06T16:00:34.378Z,1.87
2023-03-06T16:03:21.092Z,2.93
2023-03-06T16:05:48.189Z,3.03
2023-03-06T16:08:15.454Z,1.13
2023-03-06T16:10:44.772Z,2.27
2023-03-06T16:13:16.616Z,2.80
2023-03-06T16:15:54.291Z,1.37
2023-03-06T16:18:21.067Z,3.17
2023-03-06T16:20:47.966Z,2.20
2023-03-06T16:23:16.359Z,6.20
2023-03-06T16:25:48.471Z,6.73
2023-03-06T16:28:17.135Z,5.00
2023-03-06T16:30:45.204Z,3.37
2023-03-06T16:33:13.119Z,6.83
2023-03-06T16:35:41.444Z,5.20
2023-03-06T16:38:10.470Z,8.70
2023-03-06T16:40:41.292Z,7.10
2023-03-06T16:43:10.746Z,7.17
2023-03-06T16:45:39.926Z,5.37
2023-03-06T16:48:07.765Z,4.40
2023-03-06T16:50:38.538Z,3.53
2023-03-06T16:53:05.897Z,4.60
2023-03-06T16:55:33.088Z,6.33
2023-03-06T16:58:00.487Z,8.80
2023-03-06T17:00:33.415Z,11.23
2023-03-06T17:03:01.802Z,6.17
2023-03-06T17:05:29.063Z,5.23
2023-03-06T17:07:56.779Z,7.87
2023-03-06T17:10:26.545Z,7.90
2023-03-06T17:12:54.494Z,6.67
2023-03-06T17:15:21.267Z,5.03
2023-03-06T17:17:48.861Z,7.50
2023-03-06T17:20:15.966Z,10.93
2023-03-06T17:22:42.916Z,10.03
2023-03-06T17:25:10.438Z,12.27
2023-03-06T17:27:38.473Z,8.80
2023-03-06T17:30:09.174Z,9.47
2023-03-06T17:32:38.450Z,15.30
2023-03-06T17:35:09.517Z,18.87
2023-03-06T17:37:36.769Z,10.23
2023-03-06T17:40:04.164Z,9.10
2023-03-06T17:42:31.246Z,10.37
2023-03-06T17:44:58.240Z,7.60
2023-03-06T17:47:25.077Z,5.93
2023-03-06T17:49:51.999Z,11.13
2023-03-06T17:52:18.929Z,10.63
2023-03-06T17:54:46.468Z,8.27
2023-03-06T17:57:13.499Z,5.53
2023-03-06T17:59:41.663Z,8.37
2023-03-06T18:02:10.214Z,5.93
2023-03-06T18:04:37.237Z,4.83
2023-03-06T18:07:04.290Z,7.77
2023-03-06T18:09:31.298Z,8.17
2023-03-06T18:11:59.568Z,7.43
2023-03-06T18:14:26.723Z,6.23
2023-03-06T18:16:53.742Z,3.97
2023-03-06T18:19:20.926Z,7.30
2023-03-06T18:21:48.061Z,4.60
2023-03-06T18:24:14.822Z,5.33
2023-03-06T18:26:46.058Z,4.00
2023-03-06T18:29:13.437Z,4.67
2023-03-06T18:31:42.619Z,4.47
2023-03-06T18:34:13.572Z,5.97
2023-03-06T18:36:42.579Z,4.03
2023-03-06T18:39:12.274Z,5.37
2023-03-06T18:41:39.224Z,7.13
2023-03-06T18:44:06.568Z,18.07
2023-03-06T18:46:38.360Z,8.90
2023-03-06T18:49:08.590Z,5.97
2023-03-06T18:51:35.759Z,6.30
2023-03-06T18:54:05.983Z,5.97
2023-03-06T18:56:34.204Z,3.83
2023-03-06T18:59:05.978Z,4.83
2023-03-06T19:01:33.861Z,4.43
2023-03-06T19:04:04.989Z,3.80
2023-03-06T19:06:31.984Z,4.83
2023-03-06T19:08:59.008Z,8.97
2023-03-06T19:11:26.983Z,5.70
2023-03-06T19:13:54.209Z,3.03
2023-03-06T19:16:26.366Z,3.63
2023-03-06T19:18:56.048Z,3.70
2023-03-06T19:21:29.188Z,2.70
2023-03-06T19:23:56.830Z,4.17
2023-03-06T19:26:24.593Z,4.43
2023-03-06T19:28:53.051Z,7.07
2023-03-06T19:31:25.586Z,3.13
2023-03-06T19:33:57.102Z,2.90
2023-03-06T19:36:27.881Z,2.80
2023-03-06T19:38:58.857Z,4.13
2023-03-06T19:41:27.210Z,5.13
2023-03-06T19:43:56.886Z,5.03
2023-03-06T19:46:24.921Z,7.07
2023-03-06T19:48:57.166Z,5.63
2023-03-06T19:51:25.170Z,4.83
2023-03-06T19:53:52.847Z,4.40
2023-03-06T19:56:26.386Z,8.70
2023-03-06T19:58:53.691Z,4.13
2023-03-06T20:01:23.082Z,4.20
2023-03-06T20:03:51.295Z,4.50
2023-03-06T20:06:19.686Z,4.77
2023-03-06T20:08:47.725Z,4.83
2023-03-06T20:11:19.726Z,5.33
2023-03-06T20:13:47.742Z,3.00
2023-03-06T20:16:16.271Z,4.50
2023-03-06T20:18:43.670Z,2.53
2023-03-06T20:21:10.517Z,4.90
2023-03-06T20:23:37.305Z,3.47
2023-03-06T20:26:06.678Z,3.40
2023-03-06T20:28:39.256Z,3.33
2023-03-06T20:31:18.574Z,3.10
2023-03-06T20:33:47.256Z,3.83
2023-03-06T20:36:20.519Z,5.63
2023-03-06T20:38:47.829Z,4.47
2023-03-06T20:41:23.624Z,3.67
2023-03-06T20:43:50.801Z,4.07
2023-03-06T20:46:18.916Z,3.40
2023-03-06T20:48:48.877Z,4.17
2023-03-06T20:51:20.166Z,4.67
2023-03-06T20:53:48.236Z,6.10
2023-03-06T20:56:18.001Z,3.77
2023-03-06T20:58:45.403Z,3.73
2023-03-06T21:01:19.229Z,5.37
2023-03-06T21:03:46.118Z,5.23
2023-03-06T21:06:13.033Z,4.37
2023-03-06T21:08:40.120Z,6.53
2023-03-06T21:11:07.208Z,4.10
2023-03-06T21:13:34.376Z,6.80
2023-03-06T21:16:10.338Z,4.87
2023-03-06T21:18:37.663Z,5.37
2023-03-06T21:21:08.928Z,5.83
2023-03-06T21:23:35.744Z,6.73
2023-03-06T21:26:03.141Z,7.43
2023-03-06T21:28:30.711Z,6.57
2023-03-06T21:31:03.390Z,7.13
2023-03-06T21:33:30.370Z,7.17
2023-03-06T21:35:57.556Z,8.60
2023-03-06T21:38:25.050Z,6.70
2023-03-06T21:40:52.069Z,8.50
2023-03-06T21:43:19.044Z,7.73
2023-03-06T21:45:47.475Z,6.27
2023-03-06T21:48:18.093Z,5.23
2023-03-06T21:50:45.070Z,7.13
2023-03-06T21:53:12.002Z,6.73
2023-03-06T21:55:43.064Z,5.43
2023-03-06T21:58:10.356Z,7.70
2023-03-06T22:00:38.474Z,5.40
2023-03-06T22:03:05.528Z,7.50
2023-03-06T22:05:32.553Z,6.00
2023-03-06T22:07:59.626Z,7.17
2023-03-06T22:10:26.680Z,6.73
2023-03-06T22:12:53.632Z,7.37
2023-03-06T22:15:21.989Z,6.20
2023-03-06T22:17:49.126Z,7.97
2023-03-06T22:20:16.327Z,7.47
2023-03-06T22:22:44.083Z,8.20
2023-03-06T22:25:12.127Z,5.60
2023-03-06T22:27:39.213Z,8.03
2023-03-06T22:30:07.077Z,7.43
2023-03-06T22:32:34.168Z,6.93
2023-03-06T22:35:01.091Z,7.57
2023-03-06T22:37:27.925Z,9.33
2023-03-06T22:39:56.327Z,9.03
2023-03-06T22:42:23.231Z,10.50
2023-03-06T22:44:49.977Z,12.17
2023-03-06T22:47:16.755Z,11.20
2023-03-06T22:49:43.666Z,11.47
2023-03-06T22:52:10.423Z,13.10
2023-03-06T22:54:40.225Z,12.70
2023-03-06T22:57:07.115Z,12.97
2023-03-06T22:59:47.264Z,13.73
2023-03-06T23:02:14.232Z,14.57
2023-03-06T23:04:41.272Z,13.63
2023-03-06T23:07:09.387Z,17.57
2023-03-06T23:09:41.293Z,17.30
2023-03-06T23:12:09.237Z,18.67
2023-03-06T23:14:36.075Z,19.60
2023-03-06T23:17:02.979Z,20.97
2023-03-06T23:19:29.929Z,24.00
2023-03-06T23:21:56.993Z,24.80
2023-03-06T23:24:24.027Z,30.67
2023-03-06T23:26:51.104Z,28.73
2023-03-06T23:29:18.042Z,30.07
2023-03-06T23:31:45.112Z,34.00
2023-03-06T23:34:11.985Z,32.43
2023-03-06T23:36:38.836Z,34.20
2023-03-06T23:39:05.705Z,36.73
2023-03-06T23:41:32.857Z,36.70
2023-03-06T23:43:59.802Z,36.63
2023-03-06T23:46:26.763Z,41.27
2023-03-06T23:48:53.636Z,40.83
2023-03-06T23:51:22.205Z,42.50
2023-03-06T23:53:55.528Z,43.43
2023-03-06T23:56:23.452Z,44.63
2023-03-06T23:58:50.618Z,46.97
